Fredericksbg, Ohio
Current Conditions -  °F | °C
As of 7:56 AM on Saturday 20 Dec 2014 (Local Time) from KBJJ Reporting Station
Overcast Overcast  
Wind Chill: 22°   Ceiling: 2100
Heat Index: 27°   Visibility: 10mi
Dew Point: 21°   Wind: 5mph
Humidity: 78%   Direction: 50°NE
Pressure: 30.27"   Gusts: NA
Location:  40.6693°N, 81.8428°W
Report Text: KBJJ 201256Z AUTO 05004KT 10SM OVC021 M03/M06 A3027 RMK AO2 SLP267 T10281061 TSNO
Loading
Personal Weather Stations






























Interactive Weather Map New forecast layout! Learn more

10-Day Weather Forecast

Advertisements
Track Severe Weather on mobile